Time;durP1;ratioP1;P1;durP2;ratioP2;P2;SDS_P1;SDS_P2;PMS_P1;PMS_P2;Temp;Humidity;BMP_temperature;BMP_pressure;BME280_temperature;BME280_humidity;BME280_pressure;Samples;Min_cycle;Max_cycle;Signal;HPM_P1;HPM_P2
2024/02/15 00:01:43;;;;;;;4.37;1.13;;;;;;;-145.69;68.37;52337.44;5112729;28;20663;-81
2024/02/15 00:04:10;;;;;;;3.73;0.87;;;;;;;-145.69;67.76;52278.03;5113347;28;20533;-81
2024/02/15 00:06:40;;;;;;;2.23;1.00;;;;;;;-145.69;67.30;52285.97;5113064;28;20201;-82
2024/02/15 00:09:07;;;;;;;2.73;1.03;;;;;;;-145.69;67.29;52327.53;5112948;28;20564;-81
2024/02/15 00:11:34;;;;;;;1.53;1.00;;;;;;;-145.69;67.77;52293.88;5112782;28;20193;-82
2024/02/15 00:14:00;;;;;;;1.97;1.10;;;;;;;-145.69;68.02;52289.91;5113175;28;20197;-80
2024/02/15 00:16:27;;;;;;;9.70;1.20;;;;;;;-145.69;67.62;52331.50;5113122;28;20279;-80
2024/02/15 00:18:55;;;;;;;3.80;1.25;;;;;;;-145.69;69.37;52321.59;5112384;28;20489;-82
2024/02/15 00:21:21;;;;;;;3.17;0.80;;;;;;;-145.69;67.42;52315.66;5113192;28;20205;-82
2024/02/15 00:23:48;;;;;;;2.07;1.00;;;;;;;-145.69;68.17;52319.63;5112917;28;20648;-82
2024/02/15 00:26:16;;;;;;;5.47;1.30;;;;;;;-145.69;68.12;52309.72;5112856;28;20216;-81
2024/02/15 00:28:42;;;;;;;4.87;1.00;;;;;;;-145.69;69.00;52315.66;5112953;28;20201;-82
2024/02/15 00:31:09;;;;;;;1.13;0.90;;;;;;;-145.69;69.24;52309.72;5114331;28;20205;-81
2024/02/15 00:33:36;;;;;;;1.73;1.00;;;;;;;-145.69;69.84;52317.66;5117219;28;20193;-82
2024/02/15 00:36:03;;;;;;;3.97;1.10;;;;;;;-145.69;68.92;52353.28;5117155;28;20221;-81
2024/02/15 00:38:30;;;;;;;1.97;1.00;;;;;;;-145.69;68.60;52299.81;5116506;28;20204;-80
2024/02/15 00:40:58;;;;;;;2.63;1.10;;;;;;;-145.69;69.11;52323.59;5117326;28;20212;-81
2024/02/15 00:43:27;;;;;;;3.10;1.70;;;;;;;-145.69;69.73;52291.91;5117148;28;20200;-81
2024/02/15 00:45:54;;;;;;;3.83;1.20;;;;;;;-145.69;69.81;52345.38;5117138;28;20205;-81
2024/02/15 00:48:20;;;;;;;2.93;1.20;;;;;;;-145.69;69.46;52289.91;5116511;28;20227;-81
2024/02/15 00:50:48;;;;;;;1.63;1.30;;;;;;;-145.69;69.77;52317.66;5116403;28;20197;-82
2024/02/15 00:53:16;;;;;;;3.33;1.23;;;;;;;-145.69;70.08;52297.84;5116235;28;20280;-82
2024/02/15 00:55:43;;;;;;;5.73;1.30;;;;;;;-145.69;69.99;52317.66;5116567;28;20259;-81
2024/02/15 00:58:09;;;;;;;2.20;1.40;;;;;;;-145.69;69.72;52297.84;5116946;28;20205;-81
2024/02/15 01:00:38;;;;;;;1.80;1.00;;;;;;;-145.69;71.40;52359.22;5116816;28;20202;-81
2024/02/15 01:03:04;;;;;;;4.33;1.30;;;;;;;-145.69;70.71;52274.06;5116629;28;20201;-81
2024/02/15 01:05:31;;;;;;;1.97;1.10;;;;;;;-145.69;69.79;52319.63;5116049;28;20212;-81
2024/02/15 01:07:58;;;;;;;3.50;1.30;;;;;;;-145.69;69.97;52309.72;5115784;28;20227;-81
2024/02/15 01:10:24;;;;;;;2.17;1.17;;;;;;;-145.69;69.76;52335.47;5115315;28;20197;-81
2024/02/15 01:12:51;;;;;;;3.17;1.27;;;;;;;-145.69;69.02;52353.28;5116681;28;20289;-81
2024/02/15 01:15:19;;;;;;;2.87;1.47;;;;;;;-145.69;68.42;52321.59;5115997;28;20217;-81
2024/02/15 01:17:47;;;;;;;5.83;1.50;;;;;;;-145.69;68.74;52321.59;5115852;28;20201;-81
2024/02/15 01:20:14;;;;;;;5.03;1.40;;;;;;;-145.69;69.85;52323.59;5114474;27;20189;-81
2024/02/15 01:22:40;;;;;;;4.97;1.30;;;;;;;-145.69;69.16;52309.72;5103926;28;20205;-81
2024/02/15 01:25:08;;;;;;;2.27;1.23;;;;;;;-145.69;68.91;52331.50;5116335;28;20201;-81
2024/02/15 01:27:35;;;;;;;3.03;1.20;;;;;;;-145.69;69.30;52327.53;5116329;28;20220;-81
2024/02/15 01:30:01;;;;;;;1.60;1.10;;;;;;;-145.69;69.35;52307.75;5116149;28;20208;-81
2024/02/15 01:32:27;;;;;;;2.93;0.90;;;;;;;-145.69;70.30;52363.19;5116198;28;20672;-81
2024/02/15 01:34:55;;;;;;;7.50;1.40;;;;;;;-145.69;70.23;52325.56;5115942;28;20286;-80
2024/02/15 01:37:22;;;;;;;2.07;1.30;;;;;;;-145.69;69.69;52327.53;5115597;28;20202;-81
2024/02/15 01:39:49;;;;;;;4.23;1.40;;;;;;;-145.69;71.42;52329.53;5115603;28;20198;-80
2024/02/15 01:42:15;;;;;;;1.53;1.43;;;;;;;-145.69;70.88;52331.50;5115873;28;20289;-80
2024/02/15 01:44:44;;;;;;;1.20;1.10;;;;;;;-145.69;70.46;52325.56;5115895;28;20190;-81
2024/02/15 01:47:12;;;;;;;2.47;1.40;;;;;;;-145.69;70.27;52333.47;5115722;28;20197;-81
2024/02/15 01:49:38;;;;;;;3.90;1.37;;;;;;;-145.69;69.78;52325.56;5115467;28;20236;-81
2024/02/15 01:52:09;;;;;;;3.53;1.37;;;;;;;-145.69;70.18;52329.53;5115648;28;20713;-81
2024/02/15 01:54:38;;;;;;;3.07;1.30;;;;;;;-145.69;70.06;52373.09;5114885;28;20189;-80
2024/02/15 01:57:05;;;;;;;4.07;1.17;;;;;;;-145.69;69.79;52305.75;5115576;28;20213;-81
2024/02/15 01:59:32;;;;;;;3.73;1.20;;;;;;;-145.69;70.54;52325.56;5115891;28;20652;-81
2024/02/15 02:01:59;;;;;;;5.73;1.60;;;;;;;-145.69;70.12;52333.47;5114826;28;20204;-81
2024/02/15 02:04:25;;;;;;;4.13;1.30;;;;;;;-145.69;71.20;52345.38;5115901;28;20644;-82
2024/02/15 02:06:55;;;;;;;2.10;1.10;;;;;;;-145.69;71.68;52331.50;5115406;28;20648;-82
2024/02/15 02:09:23;;;;;;;2.47;1.33;;;;;;;-145.69;71.42;52325.56;5115043;28;20326;-80
2024/02/15 02:11:50;;;;;;;2.13;1.30;;;;;;;-145.69;71.74;52339.44;5115198;28;20205;-80
2024/02/15 02:14:17;;;;;;;3.80;1.60;;;;;;;-145.69;71.16;52351.31;5114702;28;20189;-81
2024/02/15 02:16:46;;;;;;;2.70;1.27;;;;;;;-145.69;71.42;52317.66;5115420;28;20225;-81
2024/02/15 02:19:13;;;;;;;2.07;1.27;;;;;;;-145.69;71.54;52315.66;5114528;27;20254;-81
2024/02/15 02:21:39;;;;;;;5.97;1.30;;;;;;;-145.69;71.17;52329.53;5115176;28;20208;-81
2024/02/15 02:24:13;;;;;;;3.93;1.40;;;;;;;-145.69;71.42;52299.81;5115032;28;20576;-81
2024/02/15 02:26:41;;;;;;;8.00;1.80;;;;;;;-145.69;71.24;52305.75;5115294;27;20215;-81
2024/02/15 02:29:08;;;;;;;3.27;1.50;;;;;;;-145.69;72.02;52337.44;5115160;27;20262;-81
2024/02/15 02:31:35;;;;;;;5.53;1.20;;;;;;;-145.69;71.66;52339.44;5115069;28;20610;-81
2024/02/15 02:34:01;;;;;;;2.97;1.23;;;;;;;-145.69;71.67;52333.47;5114785;28;20210;-81
2024/02/15 02:36:29;;;;;;;1.77;1.20;;;;;;;-145.69;71.84;52295.84;5114760;28;20221;-81
2024/02/15 02:39:00;;;;;;;3.20;1.30;;;;;;;-145.69;71.54;52309.72;5115046;28;20190;-81
2024/02/15 02:41:26;;;;;;;1.70;1.27;;;;;;;-145.69;71.52;52339.44;5114876;28;20197;-81
2024/02/15 02:43:54;;;;;;;1.57;1.27;;;;;;;-145.69;71.47;52301.81;5114974;28;20194;-81
2024/02/15 02:46:21;;;;;;;4.20;1.37;;;;;;;-145.69;71.28;52367.16;5114581;28;20197;-81
2024/02/15 02:48:47;;;;;;;4.30;1.30;;;;;;;-145.69;72.19;52337.44;5114478;28;20240;-81
2024/02/15 02:51:13;;;;;;;2.03;1.30;;;;;;;-145.69;71.86;52349.31;5114774;28;20201;-81
2024/02/15 02:53:40;;;;;;;3.63;1.37;;;;;;;-145.69;71.79;52325.56;5113966;27;20205;-81
2024/02/15 02:56:08;;;;;;;2.53;1.07;;;;;;;-145.69;70.90;52333.47;5114127;28;20302;-81
2024/02/15 02:58:35;;;;;;;2.73;1.40;;;;;;;-145.69;70.90;52341.41;5114516;28;20209;-81
2024/02/15 03:01:02;;;;;;;5.50;1.43;;;;;;;-145.69;71.03;52331.50;5114489;28;20208;-81
2024/02/15 03:03:29;;;;;;;4.23;1.50;;;;;;;-145.69;71.63;52373.09;5114320;28;20197;-81
2024/02/15 03:05:55;;;;;;;5.23;1.30;;;;;;;-145.69;71.38;52317.66;5114384;28;20201;-81
2024/02/15 03:08:22;;;;;;;2.40;1.10;;;;;;;-145.69;71.28;52337.44;5113718;28;20193;-81
2024/02/15 03:10:48;;;;;;;2.90;1.23;;;;;;;-145.69;71.50;52313.69;5114391;28;20208;-82
2024/02/15 03:13:15;;;;;;;5.90;1.30;;;;;;;-145.69;71.80;52351.31;5113903;28;20193;-81
2024/02/15 03:15:42;;;;;;;1.73;1.37;;;;;;;-145.69;72.69;52339.44;5114208;28;20221;-81
2024/02/15 03:18:09;;;;;;;2.37;1.10;;;;;;;-145.69;72.84;52329.53;5114059;28;20663;-81
2024/02/15 03:20:38;;;;;;;2.60;1.30;;;;;;;-145.69;73.21;52325.56;5113956;28;20201;-81
2024/02/15 03:23:04;;;;;;;7.22;1.45;;;;;;;-145.69;73.60;52291.91;5113458;28;20501;-82
2024/02/15 03:25:31;;;;;;;4.57;1.83;;;;;;;-145.69;72.15;52339.44;5113967;28;20200;-81
2024/02/15 03:27:59;;;;;;;3.50;1.13;;;;;;;-145.69;71.80;52347.34;5113655;28;20205;-81
2024/02/15 03:30:29;;;;;;;4.00;1.20;;;;;;;-145.69;71.77;52349.31;5113888;28;20197;-80
2024/02/15 03:32:56;;;;;;;4.03;1.23;;;;;;;-145.69;71.98;52355.28;5113835;28;20198;-81
2024/02/15 03:35:26;;;;;;;1.60;1.50;;;;;;;-145.69;71.25;52388.94;5113541;28;20229;-81
2024/02/15 03:37:53;;;;;;;4.53;1.50;;;;;;;-145.69;71.71;52337.44;5113785;28;20205;-81
2024/02/15 03:40:21;;;;;;;3.43;1.30;;;;;;;-145.69;71.45;52347.34;5113840;28;20201;-81
2024/02/15 03:42:47;;;;;;;2.03;1.33;;;;;;;-145.69;73.34;52321.59;5113852;28;20206;-81
2024/02/15 03:45:14;;;;;;;3.20;1.00;;;;;;;-145.69;72.43;52329.53;5113351;28;20202;-81
2024/02/15 03:47:41;;;;;;;1.53;1.27;;;;;;;-145.69;72.57;52359.22;5113546;28;20197;-81
2024/02/15 03:50:09;;;;;;;2.10;1.30;;;;;;;-145.69;72.15;52285.97;5113234;28;20742;-80
2024/02/15 03:52:38;;;;;;;5.37;1.23;;;;;;;-145.69;72.43;52345.38;5113761;28;20226;-81
2024/02/15 03:55:05;;;;;;;3.77;0.97;;;;;;;-145.69;72.13;52323.59;5113231;27;20576;-80
2024/02/15 03:57:33;;;;;;;4.87;1.23;;;;;;;-145.69;72.31;52365.16;5113208;28;20202;-81
2024/02/15 03:59:59;;;;;;;2.57;1.57;;;;;;;-145.69;71.62;52335.47;5113451;28;20545;-81
2024/02/15 04:02:28;;;;;;;2.13;1.30;;;;;;;-145.69;72.36;52353.28;5112870;28;20201;-81
2024/02/15 04:04:55;;;;;;;2.33;1.30;;;;;;;-145.69;72.59;52329.53;5113123;28;20197;-81
2024/02/15 04:07:22;;;;;;;2.97;1.30;;;;;;;-145.69;72.42;52345.38;5112934;28;20232;-81
2024/02/15 04:09:50;;;;;;;2.93;1.43;;;;;;;-145.69;72.95;52341.41;5113462;28;20197;-81
2024/02/15 04:12:16;;;;;;;3.13;1.37;;;;;;;-145.69;72.40;52353.28;5113375;28;20246;-82
2024/02/15 04:14:44;;;;;;;4.17;1.43;;;;;;;-145.69;72.73;52367.16;5112414;28;20205;-82
2024/02/15 04:17:13;;;;;;;4.30;1.10;;;;;;;-145.69;72.83;52351.31;5112939;28;20710;-82
2024/02/15 04:19:40;;;;;;;3.70;1.60;;;;;;;-145.69;73.07;52333.47;5113149;28;20208;-81
2024/02/15 04:22:07;;;;;;;4.30;1.50;;;;;;;-145.69;72.54;52339.44;5111536;28;20201;-81
2024/02/15 04:24:34;;;;;;;4.20;1.50;;;;;;;-145.69;72.07;52339.44;5112950;28;20296;-81
2024/02/15 04:27:02;;;;;;;2.63;1.40;;;;;;;-145.69;73.12;52337.44;5113028;28;20534;-81
2024/02/15 04:29:28;;;;;;;3.30;1.20;;;;;;;-145.69;73.10;52329.53;5113146;28;20232;-81
2024/02/15 04:31:55;;;;;;;4.70;1.50;;;;;;;-145.69;73.02;52341.41;5113011;28;20675;-81
2024/02/15 04:34:22;;;;;;;3.17;1.20;;;;;;;-145.69;73.07;52339.44;5113143;28;20201;-81
2024/02/15 04:36:50;;;;;;;4.10;1.33;;;;;;;-145.69;72.78;52329.53;5113081;28;20235;-81
2024/02/15 04:39:24;;;;;;;3.63;1.30;;;;;;;-145.69;72.34;52373.09;5112607;28;20199;-81
2024/02/15 04:41:50;;;;;;;3.17;1.30;;;;;;;-145.69;72.27;52355.28;5112439;28;20225;-82
2024/02/15 04:44:20;;;;;;;3.97;1.73;;;;;;;-145.69;72.51;52361.22;5112904;28;20885;-82
2024/02/15 04:46:46;;;;;;;4.50;1.40;;;;;;;-145.69;72.36;52345.38;5112908;28;20193;-82
2024/02/15 04:49:13;;;;;;;4.30;1.60;;;;;;;-145.69;72.54;52333.47;5112683;28;20249;-82
2024/02/15 04:51:40;;;;;;;3.90;1.70;;;;;;;-145.69;71.89;52373.09;5113070;28;20545;-82
2024/02/15 04:54:07;;;;;;;3.67;1.50;;;;;;;-145.69;72.91;52369.13;5112775;28;20200;-81
2024/02/15 04:56:35;;;;;;;4.17;1.60;;;;;;;-145.69;73.01;52369.13;5112469;28;20217;-81
2024/02/15 04:59:02;;;;;;;3.23;1.60;;;;;;;-145.69;72.62;52333.47;5111820;28;20211;-80
2024/02/15 05:01:31;;;;;;;5.70;1.57;;;;;;;-145.69;73.05;52325.56;5112965;28;20208;-82
2024/02/15 05:04:07;;;;;;;3.90;1.30;;;;;;;-145.69;74.90;52357.25;5112999;28;20677;-80
2024/02/15 05:06:33;;;;;;;3.50;1.50;;;;;;;-145.69;74.20;52333.47;5112432;28;20198;-81
2024/02/15 05:09:00;;;;;;;2.67;1.50;;;;;;;-145.69;73.74;52361.22;5112793;28;20663;-82
2024/02/15 05:11:28;;;;;;;5.27;1.50;;;;;;;-145.69;73.80;52351.31;5112586;27;20242;-81
2024/02/15 05:13:55;;;;;;;4.17;1.57;;;;;;;-145.69;74.46;52377.06;5112453;28;20197;-82
2024/02/15 05:16:21;;;;;;;3.70;1.60;;;;;;;-145.69;73.62;52365.16;5112881;28;20229;-81
2024/02/15 05:18:49;;;;;;;2.23;1.40;;;;;;;-145.69;74.36;52341.41;5116196;27;20205;-82
2024/02/15 05:21:18;;;;;;;6.37;1.80;;;;;;;-145.69;74.24;52377.06;5116134;28;20200;-81
2024/02/15 05:23:44;;;;;;;4.27;1.60;;;;;;;-145.69;73.39;52339.44;5116379;28;20202;-81
2024/02/15 05:26:12;;;;;;;5.83;1.80;;;;;;;-145.69;74.70;52331.50;5116288;28;20186;-81
2024/02/15 05:28:40;;;;;;;3.77;1.83;;;;;;;-145.69;74.11;52357.25;5116139;28;20190;-82
2024/02/15 05:31:12;;;;;;;4.53;1.80;;;;;;;-145.69;73.15;52345.38;5116295;28;20201;-81
2024/02/15 05:33:43;;;;;;;7.53;2.28;;;;;;;-145.69;73.77;52375.06;5115918;28;20438;-80
2024/02/15 05:36:12;;;;;;;3.13;1.70;;;;;;;-145.69;73.48;52353.28;5115804;28;20232;-81
2024/02/15 05:38:39;;;;;;;7.13;1.70;;;;;;;-145.69;73.97;52343.38;5116279;28;20293;-82
2024/02/15 05:41:07;;;;;;;4.67;1.50;;;;;;;-145.69;74.54;52329.53;5115889;28;20202;-81
2024/02/15 05:43:37;;;;;;;2.30;1.30;;;;;;;-145.69;73.14;52309.72;5115983;28;20663;-81
2024/02/15 05:46:04;;;;;;;3.17;1.50;;;;;;;-145.69;73.35;52361.22;5115340;27;20262;-82
2024/02/15 05:48:30;;;;;;;3.37;1.63;;;;;;;-145.69;73.71;52339.44;5115793;28;20283;-81
2024/02/15 05:50:57;;;;;;;3.67;1.60;;;;;;;-145.69;72.71;52355.28;5115934;28;20201;-81
2024/02/15 05:53:25;;;;;;;3.57;1.33;;;;;;;-145.69;72.73;52333.47;5115378;28;20236;-82
2024/02/15 05:55:51;;;;;;;3.77;1.50;;;;;;;-145.69;73.13;52345.38;5115645;28;20228;-81
2024/02/15 05:58:18;;;;;;;2.33;1.63;;;;;;;-145.69;74.60;52353.28;5114820;28;20201;-82
2024/02/15 06:00:45;;;;;;;3.73;1.50;;;;;;;-145.69;72.91;52359.22;5114538;28;20652;-82
2024/02/15 06:03:12;;;;;;;3.50;1.50;;;;;;;-145.69;72.11;52349.31;5115407;28;20231;-80
2024/02/15 06:05:39;;;;;;;7.13;1.70;;;;;;;-145.69;72.26;52369.13;5115286;28;20266;-80
2024/02/15 06:08:08;;;;;;;5.63;1.87;;;;;;;-145.69;74.10;52359.22;5115128;28;20716;-81
2024/02/15 06:10:36;;;;;;;7.30;1.97;;;;;;;-145.69;74.76;52357.25;5113847;28;20556;-82
2024/02/15 06:13:03;;;;;;;3.53;1.63;;;;;;;-145.69;74.68;52333.47;5113059;28;20197;-81
2024/02/15 06:15:29;;;;;;;8.00;1.73;;;;;;;-145.69;74.56;52341.41;5112932;28;20206;-81
2024/02/15 06:17:57;;;;;;;4.90;2.03;;;;;;;-145.69;73.97;52345.38;5094294;28;20700;-81
2024/02/15 06:20:24;;;;;;;4.70;1.77;;;;;;;-145.69;73.42;52333.47;5096858;28;20284;-81
2024/02/15 06:22:52;;;;;;;3.23;1.80;;;;;;;-145.69;73.52;52361.22;5114984;28;20682;-81
2024/02/15 06:25:20;;;;;;;7.43;2.23;;;;;;;-145.69;74.17;52317.66;5115186;28;20232;-81
2024/02/15 06:27:51;;;;;;;3.77;1.80;;;;;;;-145.69;74.17;52321.59;5114459;28;20284;-81
2024/02/15 06:41:29;;;;;;;3.23;1.40;;;;;;;-145.69;73.44;52355.28;5032156;28;20234;-81
2024/02/15 06:43:57;;;;;;;6.37;1.70;;;;;;;-145.69;74.54;52361.22;5070772;28;20239;-81
2024/02/15 06:46:24;;;;;;;3.80;1.80;;;;;;;-145.69;74.63;52309.72;5114679;28;20602;-81
2024/02/15 06:48:54;;;;;;;5.50;1.70;;;;;;;-145.69;74.50;52287.94;5114593;28;20233;-81
2024/02/15 06:51:21;;;;;;;4.57;2.03;;;;;;;-145.69;74.43;52341.41;5114468;27;20674;-81
2024/02/15 06:53:47;;;;;;;9.67;2.60;;;;;;;-145.69;74.68;52365.16;5114759;28;20206;-81
2024/02/15 06:56:13;;;;;;;5.63;2.10;;;;;;;-145.69;74.09;52369.13;5114601;28;20217;-81
2024/02/15 06:58:41;;;;;;;12.43;2.97;;;;;;;-145.69;74.76;52345.38;5114467;28;20204;-81
2024/02/15 07:01:09;;;;;;;8.17;2.40;;;;;;;-145.69;74.32;52303.78;5114599;28;20323;-81
2024/02/15 07:03:35;;;;;;;4.60;1.83;;;;;;;-145.69;75.25;52333.47;5114392;28;20205;-81
2024/02/15 07:06:03;;;;;;;4.73;2.00;;;;;;;-145.69;74.62;52329.53;5114237;28;20201;-81
2024/02/15 07:08:29;;;;;;;5.00;1.60;;;;;;;-145.69;74.68;52349.31;5114116;28;20197;-81
2024/02/15 07:10:56;;;;;;;6.37;2.17;;;;;;;-145.69;74.84;52325.56;5114173;28;20673;-81
2024/02/15 07:13:23;;;;;;;5.50;1.70;;;;;;;-145.69;74.60;52331.50;5113940;28;20197;-81
2024/02/15 07:15:49;;;;;;;12.10;1.90;;;;;;;-145.69;74.75;52369.13;5114305;28;20201;-81
2024/02/15 07:18:18;;;;;;;12.27;1.77;;;;;;;-145.69;74.46;52327.53;5114152;28;20580;-81
2024/02/15 07:20:46;;;;;;;7.90;1.60;;;;;;;-145.69;74.03;52361.22;5114052;27;20251;-80
2024/02/15 07:23:13;;;;;;;3.67;1.73;;;;;;;-145.69;74.64;52293.88;5114110;28;20201;-81
2024/02/15 07:25:39;;;;;;;5.77;1.40;;;;;;;-145.69;73.82;52327.53;5113880;28;20197;-81
2024/02/15 07:28:08;;;;;;;5.50;2.00;;;;;;;-145.69;74.03;52317.66;5113303;28;20200;-81
2024/02/15 07:30:34;;;;;;;9.53;1.70;;;;;;;-145.69;73.60;52327.53;5093521;28;20234;-81
2024/02/15 07:33:00;;;;;;;9.87;2.00;;;;;;;-145.69;73.79;52309.72;5093836;28;20210;-81
2024/02/15 07:35:29;;;;;;;4.33;1.87;;;;;;;-145.69;73.97;52333.47;5093381;28;20467;-81
2024/02/15 07:37:58;;;;;;;3.87;1.93;;;;;;;-145.69;74.74;52337.44;5093375;28;20229;-80
2024/02/15 07:40:28;;;;;;;7.23;1.90;;;;;;;-145.69;73.96;52321.59;5089968;28;20561;-79
2024/02/15 07:42:57;;;;;;;4.93;1.90;;;;;;;-145.69;73.67;52351.31;5092539;28;20202;-81
2024/02/15 07:45:23;;;;;;;5.67;1.77;;;;;;;-145.69;73.00;52301.81;5110576;28;20201;-81
2024/02/15 07:47:50;;;;;;;5.70;1.70;;;;;;;-145.69;73.04;52301.81;5112708;28;20193;-82
2024/02/15 07:50:19;;;;;;;6.63;2.07;;;;;;;-145.69;72.56;52329.53;5113093;27;20201;-82
2024/02/15 07:52:47;;;;;;;10.23;3.43;;;;;;;-145.69;73.81;52313.69;5113008;28;20236;-82
2024/02/15 07:55:16;;;;;;;8.43;4.00;;;;;;;-145.69;74.17;52341.41;5112009;28;20208;-80
2024/02/15 07:57:46;;;;;;;10.00;3.00;;;;;;;-145.69;73.92;52329.53;5112439;28;20221;-81
2024/02/15 08:00:16;;;;;;;9.30;2.37;;;;;;;-145.69;74.17;52313.69;5112361;28;20194;-81
2024/02/15 08:02:42;;;;;;;11.27;2.43;;;;;;;-145.69;73.36;52301.81;5113226;28;20213;-81
2024/02/15 08:05:11;;;;;;;7.33;2.10;;;;;;;-145.69;74.14;52323.59;5112968;28;20204;-81
2024/02/15 08:07:41;;;;;;;4.27;1.80;;;;;;;-145.69;73.40;52329.53;5113140;28;20205;-81
2024/02/15 08:10:12;;;;;;;8.43;2.50;;;;;;;-145.69;73.78;52319.63;5112510;28;20687;-81
2024/02/15 08:12:40;;;;;;;4.90;2.10;;;;;;;-145.69;73.57;52276.06;5097195;28;20197;-82
2024/02/15 08:15:11;;;;;;;9.33;1.77;;;;;;;-145.69;73.60;52293.88;5109925;28;20621;-81
2024/02/15 08:17:38;;;;;;;5.43;1.80;;;;;;;-145.69;73.06;52282.00;5111905;28;20220;-81
2024/02/15 08:20:07;;;;;;;3.63;1.90;;;;;;;-145.69;73.13;52270.13;5112798;28;20212;-82
2024/02/15 08:22:33;;;;;;;7.70;2.23;;;;;;;-145.69;73.20;52309.72;5112861;28;20659;-83
2024/02/15 08:25:00;;;;;;;4.20;1.63;;;;;;;-145.69;73.55;52305.75;5111982;28;20201;-83
2024/02/15 08:27:32;;;;;;;5.00;1.90;;;;;;;-145.69;73.18;52325.56;5111510;28;20216;-81
2024/02/15 08:29:59;;;;;;;4.67;1.80;;;;;;;-145.69;73.55;52319.63;5107574;28;20193;-82
2024/02/15 08:32:28;;;;;;;7.10;2.00;;;;;;;-145.69;72.71;52331.50;5112981;28;20206;-82
2024/02/15 08:34:54;;;;;;;5.03;1.40;;;;;;;-145.69;73.31;52285.97;5111985;28;20198;-82
2024/02/15 08:37:21;;;;;;;6.47;1.50;;;;;;;-145.69;72.80;52291.91;5112807;28;20221;-82
2024/02/15 08:39:52;;;;;;;7.20;1.87;;;;;;;-145.69;73.59;52280.00;5112549;28;20219;-82
2024/02/15 08:42:22;;;;;;;3.80;2.00;;;;;;;-145.69;73.84;52309.72;5113177;27;20656;-83
2024/02/15 08:44:49;;;;;;;5.93;1.70;;;;;;;-145.69;73.00;52291.91;5118819;27;20210;-83
2024/02/15 08:47:16;;;;;;;3.50;1.50;;;;;;;-145.69;72.40;52283.97;5111695;28;20322;-81
2024/02/15 08:49:42;;;;;;;2.47;1.30;;;;;;;-145.69;73.15;52293.88;5105552;28;20265;-82
2024/02/15 08:52:09;;;;;;;9.50;1.83;;;;;;;-145.69;73.23;52289.91;5114728;28;20213;-82
2024/02/15 08:54:42;;;;;;;5.63;1.70;;;;;;;-145.69;70.79;52289.91;5116934;28;20205;-82
2024/02/15 08:57:08;;;;;;;3.27;1.57;;;;;;;-145.69;72.34;52270.13;5116069;28;20629;-81
2024/02/15 08:59:35;;;;;;;2.63;1.33;;;;;;;-145.69;72.71;52280.00;5116965;28;20204;-81
2024/02/15 09:02:05;;;;;;;5.00;1.50;;;;;;;-145.69;73.39;52274.06;5106952;28;20221;-81
2024/02/15 09:04:32;;;;;;;1.43;1.30;;;;;;;-145.69;73.13;52252.28;5099391;28;20201;-83
2024/02/15 09:06:58;;;;;;;6.33;1.27;;;;;;;-145.69;72.83;52246.34;5118137;28;20671;-83
2024/02/15 09:09:27;;;;;;;4.80;1.50;;;;;;;-145.69;71.78;52248.34;5117280;27;20678;-82
2024/02/15 09:11:56;;;;;;;6.20;1.40;;;;;;;-145.69;69.21;52274.06;5116579;28;20769;-83
2024/02/15 09:14:25;;;;;;;4.25;1.08;;;;;;;-145.69;67.72;52285.97;5117305;28;20205;-82
2024/02/15 09:16:51;;;;;;;2.28;1.27;;;;;;;-145.69;65.81;52230.50;5117712;27;20579;-82
2024/02/15 09:19:19;;;;;;;4.78;1.17;;;;;;;-145.69;67.99;52258.22;5116427;28;20201;-82
2024/02/15 09:21:46;;;;;;;0.97;0.90;;;;;;;-145.69;71.08;52262.19;5116176;28;20529;-82
2024/02/15 09:24:16;;;;;;;1.55;0.80;;;;;;;-145.69;71.35;52250.31;5116217;28;20572;-83
2024/02/15 09:26:41;;;;;;;1.52;0.80;;;;;;;-145.69;71.02;52232.50;5116708;27;20205;-83
2024/02/15 09:29:08;;;;;;;3.58;1.13;;;;;;;-145.69;71.62;52274.06;5116091;28;20194;-84
2024/02/15 09:31:36;;;;;;;5.90;1.35;;;;;;;-145.69;71.85;52250.31;5116276;28;20559;-83
2024/02/15 09:34:06;;;;;;;2.72;1.40;;;;;;;-145.69;69.92;52250.31;5116354;28;20229;-84
2024/02/15 09:36:38;;;;;;;3.33;1.38;;;;;;;-145.69;69.96;52250.31;5116286;28;20197;-83
2024/02/15 09:39:04;;;;;;;4.35;1.60;;;;;;;-145.69;63.71;52220.59;5115816;28;20225;-81
2024/02/15 09:41:31;;;;;;;2.85;1.40;;;;;;;-145.69;68.52;52262.19;5116177;28;20648;-82
2024/02/15 09:44:03;;;;;;;3.50;1.20;;;;;;;-145.69;67.55;52210.72;5115830;28;20558;-82
2024/02/15 09:46:31;;;;;;;3.67;1.35;;;;;;;-145.69;67.74;52208.72;5115811;28;20574;-83
2024/02/15 09:48:59;;;;;;;2.65;1.45;;;;;;;-145.69;64.93;52202.78;5116048;28;20233;-82
2024/02/15 09:51:31;;;;;;;2.63;1.50;;;;;;;-145.69;61.23;52222.59;5115303;28;20254;-82
2024/02/15 09:54:00;;;;;;;2.17;1.42;;;;;;;-145.69;61.30;52246.34;5115896;28;20202;-80
2024/02/15 09:56:29;;;;;;;2.67;1.10;;;;;;;-145.69;61.00;52244.38;5115841;28;20202;-82
2024/02/15 09:59:07;;;;;;;1.73;1.20;;;;;;;-145.69;57.13;52196.84;5115574;28;20232;-83
2024/02/15 10:01:37;;;;;;;1.88;1.20;;;;;;;-145.69;58.43;52214.66;5115260;28;20652;-82
2024/02/15 10:04:14;;;;;;;5.15;1.38;;;;;;;-145.69;53.39;52206.75;5113788;28;20197;-82
2024/02/15 10:06:48;;;;;;;3.55;1.17;;;;;;;-145.69;52.91;52192.88;5115390;28;20296;-82
2024/02/15 10:09:27;;;;;;;2.22;1.27;;;;;;;-145.69;51.62;52194.88;5115014;28;20280;-82
2024/02/15 10:11:56;;;;;;;3.28;1.30;;;;;;;-145.69;50.83;52202.78;5115366;28;20197;-82
2024/02/15 10:14:25;;;;;;;3.97;1.08;;;;;;;-145.69;47.25;52202.78;5115654;28;20747;-82
2024/02/15 10:16:53;;;;;;;1.90;1.10;;;;;;;-145.69;47.11;52194.88;5115348;28;20212;-82
2024/02/15 10:19:20;;;;;;;2.92;1.30;;;;;;;-145.69;47.00;52196.84;5115016;28;20205;-81
2024/02/15 10:21:47;;;;;;;4.28;1.85;;;;;;;-145.69;46.47;52169.13;5114226;28;20459;-82
2024/02/15 10:24:16;;;;;;;4.88;1.83;;;;;;;-145.69;46.68;52200.81;5115187;28;20220;-81
2024/02/15 10:29:39;;;;;;;5.38;3.13;;;;;;;-145.69;45.00;52188.91;5114273;27;20234;-81
2024/02/15 10:32:10;;;;;;;7.38;2.40;;;;;;;-145.69;46.03;52186.94;5114409;28;20647;-81
2024/02/15 10:34:47;;;;;;;3.20;1.30;;;;;;;-145.69;44.30;52159.22;5115170;28;20200;-81
2024/02/15 10:37:16;;;;;;;6.05;2.50;;;;;;;-145.69;43.43;52167.13;5114152;28;20193;-82
2024/02/15 10:40:07;;;;;;;1.73;1.20;;;;;;;-145.69;43.41;52202.78;5115088;28;20197;-81
2024/02/15 10:42:36;;;;;;;4.55;1.30;;;;;;;-145.69;43.25;52159.22;5114688;28;20220;-81
2024/02/15 10:45:10;;;;;;;1.55;1.08;;;;;;;-145.69;42.80;52165.16;5114997;28;20297;-83
2024/02/15 10:47:40;;;;;;;2.15;1.23;;;;;;;-145.69;42.58;52141.41;5114769;27;20208;-81
2024/02/15 10:50:09;;;;;;;1.15;0.88;;;;;;;-145.69;42.16;52151.28;5094224;28;20688;-81
2024/02/15 10:52:54;;;;;;;2.70;1.23;;;;;;;-145.69;41.55;52175.06;5094346;28;20259;-82
2024/02/15 10:55:30;;;;;;;1.73;0.90;;;;;;;-145.69;41.87;52167.13;5094131;28;20241;-81
2024/02/15 10:58:03;;;;;;;2.50;1.13;;;;;;;-145.69;41.66;52155.25;5094136;28;20312;-81
2024/02/15 11:00:37;;;;;;;1.13;0.85;;;;;;;-145.69;41.46;52171.09;5106659;27;20232;-83
2024/02/15 11:03:06;;;;;;;5.10;1.27;;;;;;;-145.69;41.34;52173.09;5114013;28;20200;-82
2024/02/15 11:05:37;;;;;;;2.10;1.13;;;;;;;-145.69;41.44;52214.66;5114485;28;20209;-81
2024/02/15 11:08:06;;;;;;;1.95;0.90;;;;;;;-145.69;40.58;52167.13;5094140;28;20648;-80
2024/02/15 11:10:34;;;;;;;1.40;0.85;;;;;;;-145.69;41.36;52161.19;5094043;28;20645;-81
2024/02/15 11:13:02;;;;;;;1.05;0.80;;;;;;;-145.69;41.39;52143.38;5094029;28;20194;-81
2024/02/15 11:15:51;;;;;;;3.50;1.27;;;;;;;-145.69;41.09;52163.19;5093168;28;20220;-81
2024/02/15 11:18:52;;;;;;;;;;;;;;;;;;;;;
2024/02/15 11:21:47;;;;;;;1.63;1.00;;;;;;;-145.69;40.36;52131.50;5113981;28;20640;-81
2024/02/15 11:24:27;;;;;;;2.20;1.10;;;;;;;-145.69;39.79;52125.56;5093280;28;20210;-81
2024/02/15 11:27:02;;;;;;;2.45;0.90;;;;;;;-145.69;39.78;52143.38;5094341;28;20271;-81
2024/02/15 11:30:03;;;;;;;1.35;0.80;;;;;;;-145.69;39.09;52143.38;5093802;28;20247;-81
2024/02/15 11:32:39;;;;;;;1.10;0.90;;;;;;;-145.69;38.88;52131.50;5112893;28;20536;-80
2024/02/15 11:35:14;;;;;;;3.42;1.10;;;;;;;-145.69;38.29;52133.47;5113683;28;20235;-80
2024/02/15 11:37:52;;;;;;;3.70;0.80;;;;;;;-145.69;37.93;52143.38;5113689;28;20560;-80
2024/02/15 11:40:22;;;;;;;1.15;0.63;;;;;;;-145.69;38.36;52117.63;5113796;28;20690;-80